Time;durP1;ratioP1;P1;durP2;ratioP2;P2;SDS_P1;SDS_P2;PMS_P1;PMS_P2;Temp;Humidity;BMP_temperature;BMP_pressure;BME280_temperature;BME280_humidity;BME280_pressure;Samples;Min_cycle;Max_cycle;Signal;HPM_P1;HPM_P2
2021/09/13 00:02:15;;;;;;;8.48;6.93;;;;;;;20.71;48.32;99982.00;4880251;29;20251;-86
2021/09/13 00:04:44;;;;;;;8.82;7.05;;;;;;;20.70;48.37;99981.16;4880035;29;20041;-86
2021/09/13 00:07:11;;;;;;;7.65;6.55;;;;;;;20.69;48.45;99979.50;4880414;29;20205;-86
2021/09/13 00:09:37;;;;;;;8.45;6.60;;;;;;;20.63;48.57;99974.78;4880417;29;20045;-88
2021/09/13 00:12:05;;;;;;;7.97;6.55;;;;;;;20.63;48.96;99972.97;4880474;29;20056;-87
2021/09/13 00:14:33;;;;;;;10.38;7.50;;;;;;;20.62;49.95;99968.66;4880832;29;20045;-87
2021/09/13 00:17:00;;;;;;;10.75;7.57;;;;;;;20.62;49.11;99973.13;4894672;29;20579;-87
2021/09/13 00:19:27;;;;;;;10.30;6.90;;;;;;;20.51;49.74;99976.81;4880050;29;20049;-87
2021/09/13 00:21:54;;;;;;;9.68;7.22;;;;;;;20.54;49.25;99975.66;4879666;29;20442;-87
2021/09/13 00:24:21;;;;;;;8.95;7.50;;;;;;;20.56;49.40;99966.63;4879912;29;20451;-88
2021/09/13 00:26:48;;;;;;;12.57;7.63;;;;;;;20.61;49.04;99971.44;4880058;29;20052;-85
2021/09/13 00:29:16;;;;;;;9.02;7.05;;;;;;;20.61;48.98;99963.50;4879789;29;20044;-85
2021/09/13 00:31:45;;;;;;;9.23;7.68;;;;;;;20.64;49.36;99968.50;4879505;29;20396;-86
2021/09/13 00:34:13;;;;;;;8.70;7.80;;;;;;;20.64;48.34;99963.22;4879611;29;20053;-86
2021/09/13 00:36:40;;;;;;;18.25;7.65;;;;;;;20.54;48.59;99965.06;4879905;29;20045;-85
2021/09/13 00:39:07;;;;;;;8.77;7.07;;;;;;;20.59;48.61;99968.94;4879792;29;20045;-84
2021/09/13 00:41:34;;;;;;;7.53;6.32;;;;;;;20.63;48.59;99964.19;4879964;29;20049;-84
2021/09/13 00:44:02;;;;;;;9.88;6.82;;;;;;;20.54;48.42;99967.72;4879657;29;20045;-84
2021/09/13 00:46:28;;;;;;;7.78;7.05;;;;;;;20.60;48.39;99969.78;4880140;29;20041;-84
2021/09/13 00:48:55;;;;;;;8.10;7.30;;;;;;;20.57;48.58;99965.63;4879831;29;20041;-85
2021/09/13 00:51:22;;;;;;;8.02;7.32;;;;;;;20.52;48.68;99967.88;4879605;29;20404;-87
2021/09/13 00:53:50;;;;;;;7.68;6.95;;;;;;;20.59;48.22;99963.66;4880587;29;20049;-86
2021/09/13 00:56:17;;;;;;;7.57;6.88;;;;;;;20.48;48.58;99965.66;4881041;29;20053;-86
2021/09/13 00:58:45;;;;;;;8.70;7.05;;;;;;;20.47;48.51;99964.00;4880009;29;20049;-86
2021/09/13 01:01:12;;;;;;;11.70;6.55;;;;;;;20.51;48.36;99966.22;4879643;29;20520;-86
2021/09/13 01:03:38;;;;;;;7.93;7.22;;;;;;;20.49;48.51;99967.34;4880791;29;20047;-85
2021/09/13 01:06:06;;;;;;;11.07;6.60;;;;;;;20.44;48.54;99964.25;4884136;29;20046;-85
2021/09/13 01:08:33;;;;;;;8.82;6.82;;;;;;;20.48;48.92;99968.31;4882862;29;20072;-84
2021/09/13 01:11:01;;;;;;;7.93;7.03;;;;;;;20.43;48.40;99971.38;4881558;29;20449;-84
2021/09/13 01:13:27;;;;;;;11.85;7.82;;;;;;;20.42;48.71;99970.53;4883109;29;20059;-83
2021/09/13 01:15:54;;;;;;;8.25;7.55;;;;;;;20.48;48.47;99965.66;4882009;29;20140;-84
2021/09/13 01:18:21;;;;;;;9.13;6.43;;;;;;;20.51;48.74;99970.69;4881129;29;20073;-83
2021/09/13 01:20:48;;;;;;;10.50;7.00;;;;;;;20.46;48.86;99970.25;4882059;29;20105;-84
2021/09/13 01:23:36;;;;;;;8.02;7.28;;;;;;;20.31;49.75;99969.91;4896181;29;20120;-84
2021/09/13 01:26:07;;;;;;;7.35;6.75;;;;;;;20.23;50.23;99972.44;4880756;29;20045;-83
2021/09/13 01:28:35;;;;;;;10.88;6.68;;;;;;;20.15;50.42;99965.22;4880556;29;20144;-82
2021/09/13 01:31:04;;;;;;;9.13;7.50;;;;;;;20.11;50.36;99963.84;4895941;29;20044;-83
2021/09/13 01:33:35;;;;;;;7.20;6.50;;;;;;;20.10;50.51;99972.75;4880907;29;20041;-85
2021/09/13 01:36:02;;;;;;;7.38;6.57;;;;;;;20.07;50.35;99973.03;4896506;29;20515;-85
2021/09/13 01:38:32;;;;;;;9.55;7.18;;;;;;;20.23;49.92;99973.25;4880948;29;20116;-86
2021/09/13 01:41:01;;;;;;;13.25;8.00;;;;;;;20.38;49.39;99961.22;4880846;29;20060;-83
2021/09/13 01:43:27;;;;;;;11.77;7.32;;;;;;;20.18;50.08;99970.22;4880540;29;20041;-85
2021/09/13 01:45:54;;;;;;;9.13;8.23;;;;;;;19.95;51.33;99974.19;4896449;29;20041;-87
2021/09/13 01:48:21;;;;;;;9.10;7.22;;;;;;;19.79;51.66;99967.69;4880367;29;20053;-87
2021/09/13 01:50:51;;;;;;;7.95;7.13;;;;;;;19.78;51.51;99973.13;4880633;29;20515;-87
2021/09/13 01:53:22;;;;;;;8.95;6.85;;;;;;;19.88;51.05;99973.94;4880609;29;20045;-88
2021/09/13 01:55:49;;;;;;;14.00;7.32;;;;;;;19.83;51.45;99968.25;4896177;29;20055;-85
2021/09/13 01:58:17;;;;;;;12.35;6.60;;;;;;;19.77;51.77;99967.00;4880199;29;20041;-85
2021/09/13 02:00:44;;;;;;;7.28;6.57;;;;;;;19.70;51.90;99972.97;4896802;29;20049;-87
2021/09/13 02:03:12;;;;;;;7.93;7.15;;;;;;;19.68;52.12;99967.84;4897530;29;20052;-86
2021/09/13 02:05:46;;;;;;;11.77;7.43;;;;;;;19.63;52.38;99973.56;4894808;29;20053;-85
2021/09/13 02:08:15;;;;;;;16.08;7.10;;;;;;;19.60;52.34;99975.63;4882906;29;20057;-86
2021/09/13 02:10:42;;;;;;;7.75;7.05;;;;;;;19.56;52.61;99980.38;4919810;29;20037;-85
2021/09/13 02:13:10;;;;;;;8.02;6.72;;;;;;;19.53;52.46;99978.00;4919343;29;20073;-84
2021/09/13 02:15:37;;;;;;;11.57;7.35;;;;;;;19.51;52.98;99979.13;4904216;29;20045;-88
2021/09/13 02:18:04;;;;;;;10.93;5.95;;;;;;;19.45;53.08;99979.69;4897522;29;20526;-82
2021/09/13 02:20:36;;;;;;;8.05;6.40;;;;;;;19.30;53.42;99981.91;4879905;29;20448;-83
2021/09/13 02:23:02;;;;;;;9.65;6.45;;;;;;;19.33;53.13;99989.53;4881315;29;20045;-83
2021/09/13 02:25:29;;;;;;;9.18;6.97;;;;;;;19.32;53.35;99982.59;4895312;29;20037;-81
2021/09/13 02:27:57;;;;;;;7.10;6.40;;;;;;;19.27;53.44;99995.38;4879979;29;20057;-81
2021/09/13 02:30:24;;;;;;;10.35;7.25;;;;;;;19.26;53.34;99985.78;4880361;29;20457;-82
2021/09/13 02:32:50;;;;;;;8.13;7.32;;;;;;;19.25;53.62;99992.06;4895176;29;20052;-81
2021/09/13 02:35:18;;;;;;;7.85;6.47;;;;;;;19.25;53.60;99992.88;4895237;29;20413;-82
2021/09/13 02:37:45;;;;;;;8.30;7.50;;;;;;;19.21;53.73;99991.47;4879494;29;20048;-83
2021/09/13 02:40:14;;;;;;;10.88;7.20;;;;;;;19.22;53.55;99992.31;4879602;29;20564;-82
2021/09/13 02:42:42;;;;;;;7.78;7.00;;;;;;;19.20;53.66;99989.81;4895187;29;20503;-83
2021/09/13 02:45:10;;;;;;;8.60;7.20;;;;;;;19.18;53.91;99997.06;4894961;29;20053;-83
2021/09/13 02:47:37;;;;;;;7.60;6.90;;;;;;;19.22;53.49;99995.78;4879091;29;20072;-86
2021/09/13 02:50:07;;;;;;;8.65;7.75;;;;;;;19.15;53.91;100001.78;4864567;29;20059;-88
2021/09/13 02:52:35;;;;;;;10.27;9.38;;;;;;;19.28;53.32;100007.63;4880056;29;20135;-89
2021/09/13 02:55:04;;;;;;;10.23;9.18;;;;;;;19.10;53.64;100015.38;4880565;29;20053;-88
2021/09/13 02:57:31;;;;;;;12.05;8.18;;;;;;;18.98;54.68;100014.69;4879653;29;20053;-86
2021/09/13 02:59:58;;;;;;;10.13;8.07;;;;;;;18.93;54.93;100016.91;4880703;29;20173;-86
2021/09/13 03:02:25;;;;;;;13.55;8.40;;;;;;;18.92;54.88;100023.16;4879507;29;20041;-86
2021/09/13 03:04:52;;;;;;;8.43;7.60;;;;;;;18.89;54.95;100019.94;4894588;29;20041;-86
2021/09/13 03:07:18;;;;;;;8.43;7.25;;;;;;;18.86;55.21;100020.22;4894503;29;20467;-84
2021/09/13 03:09:45;;;;;;;9.43;8.27;;;;;;;18.82;55.12;100015.19;4894540;29;20108;-83
2021/09/13 03:12:12;;;;;;;12.43;8.55;;;;;;;18.72;55.90;100021.44;4878810;29;20041;-85
2021/09/13 03:14:43;;;;;;;11.88;7.25;;;;;;;18.66;56.40;100017.50;4878404;29;20484;-82
2021/09/13 03:17:11;;;;;;;10.07;8.05;;;;;;;18.58;57.06;100025.22;4880045;29;20041;-81
2021/09/13 03:19:39;;;;;;;8.50;7.70;;;;;;;18.50;57.25;100025.91;4878813;29;20076;-82
2021/09/13 03:22:07;;;;;;;10.07;8.38;;;;;;;18.47;57.08;100028.78;4878762;29;20415;-80
2021/09/13 03:24:34;;;;;;;10.82;7.32;;;;;;;18.33;57.35;100030.00;4879635;29;20093;-83
2021/09/13 03:27:01;;;;;;;11.07;7.55;;;;;;;18.19;57.92;100030.34;4893237;29;20089;-80
2021/09/13 03:29:30;;;;;;;9.02;6.85;;;;;;;18.22;57.55;100026.63;4878974;29;20052;-83
2021/09/13 03:31:57;;;;;;;8.23;6.85;;;;;;;18.05;58.11;100022.75;4893785;29;20055;-84
2021/09/13 03:34:24;;;;;;;7.13;6.47;;;;;;;17.92;58.69;100022.97;4878908;29;20041;-84
2021/09/13 03:36:54;;;;;;;6.97;6.28;;;;;;;17.87;58.57;100025.13;4878266;29;20049;-84
2021/09/13 03:39:21;;;;;;;8.13;7.32;;;;;;;17.89;58.58;100025.84;4894105;29;20049;-84
2021/09/13 03:41:47;;;;;;;8.68;7.60;;;;;;;17.84;58.83;100020.09;4879198;29;20052;-84
2021/09/13 03:44:14;;;;;;;9.48;7.28;;;;;;;17.82;58.77;100021.22;4878511;29;20577;-85
2021/09/13 03:46:41;;;;;;;11.00;7.00;;;;;;;17.85;58.68;100027.09;4877981;29;20511;-83
2021/09/13 03:49:30;;;;;;;8.75;6.72;;;;;;;17.87;58.41;100024.31;4878496;29;20045;-85
2021/09/13 03:51:57;;;;;;;8.15;7.35;;;;;;;17.87;58.42;100024.31;4894063;29;20531;-84
2021/09/13 03:54:24;;;;;;;7.28;6.35;;;;;;;17.87;58.41;100026.94;4879492;29;20445;-86
2021/09/13 03:56:51;;;;;;;8.90;7.18;;;;;;;17.80;58.80;100038.00;4878186;29;20051;-84
2021/09/13 03:59:20;;;;;;;7.38;6.70;;;;;;;17.82;58.67;100037.03;4877765;29;20048;-84
2021/09/13 04:01:49;;;;;;;10.70;7.10;;;;;;;17.84;58.76;100030.66;4878175;29;20125;-84
2021/09/13 04:04:20;;;;;;;8.88;6.90;;;;;;;17.91;58.20;100025.72;4893490;29;20064;-84
2021/09/13 04:06:50;;;;;;;8.07;7.28;;;;;;;17.88;58.48;100021.53;4878048;29;20048;-84
2021/09/13 04:12:17;;;;;;;11.25;7.25;;;;;;;17.87;58.50;100024.31;4893799;29;20049;-85
2021/09/13 04:14:53;;;;;;;11.25;7.15;;;;;;;17.80;58.68;100024.81;4878931;29;20400;-85
2021/09/13 04:17:45;;;;;;;8.27;6.30;;;;;;;17.69;58.91;100032.75;4879379;29;20052;-85
2021/09/13 04:20:41;;;;;;;10.20;7.18;;;;;;;17.64;58.84;100024.41;4893591;29;20117;-85
2021/09/13 04:23:40;;;;;;;7.10;6.38;;;;;;;17.47;59.61;100027.56;4884486;29;20049;-82
2021/09/13 04:26:25;;;;;;;6.82;6.22;;;;;;;17.43;59.81;100021.72;4879133;29;20075;-85
2021/09/13 04:29:27;;;;;;;12.45;6.57;;;;;;;17.49;59.43;100030.94;4858498;29;20501;-82
2021/09/13 04:32:20;;;;;;;7.15;6.45;;;;;;;17.53;59.73;100037.63;4876542;29;20061;-81
2021/09/13 04:35:07;;;;;;;7.68;6.88;;;;;;;17.50;59.18;100028.16;4893133;29;20069;-82
2021/09/13 04:37:58;;;;;;;8.00;6.38;;;;;;;17.52;59.27;100033.28;4880096;29;20140;-84
2021/09/13 04:40:54;;;;;;;8.90;7.28;;;;;;;17.47;59.34;100028.44;4862275;29;20084;-79
2021/09/13 04:43:41;;;;;;;7.70;6.00;;;;;;;17.49;59.39;100025.66;4863960;29;20057;-83
2021/09/13 04:46:07;;;;;;;7.80;6.78;;;;;;;17.55;59.15;100040.97;4877808;29;20064;-82
2021/09/13 04:49:03;;;;;;;7.43;6.72;;;;;;;17.47;59.37;100036.34;4892090;29;20060;-85
2021/09/13 04:51:49;;;;;;;9.05;7.25;;;;;;;17.37;59.92;100037.22;4881295;29;20060;-86
2021/09/13 04:54:26;;;;;;;7.43;6.72;;;;;;;17.39;59.92;100040.56;4895997;29;20548;-87
2021/09/13 04:56:53;;;;;;;8.52;6.72;;;;;;;17.37;60.13;100034.56;4880510;29;20143;-85
2021/09/13 04:59:20;;;;;;;11.48;6.72;;;;;;;17.45;59.62;100030.34;4880374;29;20087;-85
2021/09/13 05:01:47;;;;;;;7.05;6.45;;;;;;;17.55;59.52;100038.31;4896212;29;20449;-81
2021/09/13 05:04:16;;;;;;;11.85;7.57;;;;;;;17.62;59.15;100028.94;4880004;29;20393;-83
2021/09/13 05:06:45;;;;;;;7.82;7.15;;;;;;;17.59;59.38;100033.66;4894788;29;20520;-82
2021/09/13 05:09:12;;;;;;;13.60;7.28;;;;;;;17.57;59.49;100031.13;4878857;29;20073;-83
2021/09/13 05:11:42;;;;;;;9.30;6.88;;;;;;;17.75;58.92;100034.91;4876585;29;20063;-82
2021/09/13 05:14:13;;;;;;;6.93;6.30;;;;;;;17.90;58.38;100034.59;4876855;29;20105;-82
2021/09/13 05:16:40;;;;;;;10.40;6.85;;;;;;;18.00;58.22;100035.47;4894980;29;20053;-82
2021/09/13 05:19:07;;;;;;;10.48;6.90;;;;;;;18.14;57.37;100032.53;4879103;29;20045;-82
2021/09/13 05:21:38;;;;;;;12.13;6.43;;;;;;;18.19;57.27;100040.88;4878969;29;20049;-82
2021/09/13 05:24:06;;;;;;;11.15;6.68;;;;;;;18.52;56.19;100033.69;4879305;29;20389;-84
2021/09/13 05:26:33;;;;;;;8.30;6.70;;;;;;;18.68;55.62;100039.34;4878962;29;20416;-83
2021/09/13 05:29:01;;;;;;;11.18;6.85;;;;;;;18.81;55.42;100037.31;4890506;29;20052;-83
2021/09/13 05:31:29;;;;;;;9.32;8.02;;;;;;;18.99;54.75;100028.72;4879306;29;20064;-81
2021/09/13 05:33:55;;;;;;;8.07;7.25;;;;;;;19.12;54.24;100031.94;4867295;29;20041;-82
2021/09/13 05:36:22;;;;;;;11.77;7.03;;;;;;;19.25;54.27;100042.25;4878179;29;20049;-82
2021/09/13 05:38:50;;;;;;;11.02;7.68;;;;;;;19.33;53.66;100032.69;4879241;29;20135;-84
2021/09/13 05:41:45;;;;;;;8.95;6.53;;;;;;;19.58;53.15;100033.09;4876962;29;20056;-85
2021/09/13 05:44:12;;;;;;;9.63;7.25;;;;;;;19.75;53.08;100032.41;4878198;29;20045;-84
2021/09/13 05:46:40;;;;;;;53.17;8.23;;;;;;;19.97;52.09;100038.38;4877509;29;20527;-80
2021/09/13 05:49:11;;;;;;;10.20;6.97;;;;;;;20.20;52.35;100042.38;4874191;29;20104;-80
2021/09/13 05:51:45;;;;;;;12.68;6.63;;;;;;;20.21;51.95;100043.22;4879445;29;20571;-78
2021/09/13 05:54:14;;;;;;;13.55;7.13;;;;;;;20.30;51.78;100047.66;4892050;29;20476;-80
2021/09/13 05:56:43;;;;;;;27.98;9.43;;;;;;;20.38;51.74;100045.94;4894461;29;20496;-84
2021/09/13 05:59:10;;;;;;;24.05;10.93;;;;;;;20.52;51.71;100055.25;4870433;29;20057;-78
2021/09/13 06:01:37;;;;;;;18.38;9.10;;;;;;;20.59;51.24;100050.22;4879856;29;20078;-84
2021/09/13 06:04:05;;;;;;;17.80;10.55;;;;;;;20.65;50.48;100049.63;4877087;29;20052;-81
2021/09/13 06:06:39;;;;;;;15.98;9.13;;;;;;;20.44;51.57;100048.97;4878620;29;20053;-80
2021/09/13 06:09:06;;;;;;;17.27;9.55;;;;;;;20.43;51.35;100045.50;4893691;29;20057;-81
2021/09/13 06:11:36;;;;;;;9.65;8.75;;;;;;;20.50;50.83;100049.25;4877150;29;20085;-84
2021/09/13 06:14:04;;;;;;;17.58;9.82;;;;;;;20.59;50.58;100055.50;4875530;29;20188;-79
2021/09/13 06:16:31;;;;;;;15.55;8.20;;;;;;;20.64;50.70;100051.44;4892218;29;20052;-77
2021/09/13 06:19:00;;;;;;;15.23;10.55;;;;;;;20.77;50.14;100060.84;4879486;29;20069;-82
2021/09/13 06:21:28;;;;;;;49.58;13.75;;;;;;;20.51;50.90;100058.06;4878626;29;20053;-81
2021/09/13 06:23:55;;;;;;;10.70;9.70;;;;;;;20.72;50.46;100061.31;4878925;29;20047;-86
2021/09/13 06:26:22;;;;;;;21.17;11.60;;;;;;;20.70;50.96;100065.09;4877452;29;20434;-82
2021/09/13 06:28:49;;;;;;;17.70;13.10;;;;;;;20.71;50.92;100069.38;4879007;29;20037;-81
2021/09/13 06:31:17;;;;;;;18.15;13.65;;;;;;;20.47;50.66;100068.09;4880370;29;20124;-82
2021/09/13 06:33:44;;;;;;;13.98;12.68;;;;;;;20.51;50.80;100072.13;4883142;29;20091;-79
2021/09/13 06:36:13;;;;;;;13.90;12.68;;;;;;;20.46;51.01;100070.88;4878459;29;20408;-78
2021/09/13 06:38:44;;;;;;;21.88;12.90;;;;;;;20.55;50.68;100065.53;4882986;29;20064;-80
2021/09/13 06:41:11;;;;;;;14.52;13.23;;;;;;;20.48;50.73;100072.41;4882246;29;20065;-79
2021/09/13 06:43:40;;;;;;;14.38;13.00;;;;;;;20.42;50.34;100076.44;4877906;29;20049;-79
2021/09/13 06:46:21;;;;;;;14.95;13.60;;;;;;;20.42;50.67;100083.56;4878418;29;20044;-79
2021/09/13 06:48:49;;;;;;;15.18;13.80;;;;;;;20.65;50.47;100078.75;4872109;29;20052;-77
2021/09/13 06:51:17;;;;;;;18.00;12.55;;;;;;;20.77;50.52;100080.22;4879631;29;20072;-80
2021/09/13 06:53:44;;;;;;;13.93;12.63;;;;;;;20.81;51.00;100084.25;4893466;29;20096;-79
2021/09/13 06:56:12;;;;;;;15.32;13.75;;;;;;;20.83;51.07;100086.78;4879682;29;20083;-77
2021/09/13 06:58:39;;;;;;;24.75;16.83;;;;;;;20.67;51.45;100092.69;4879379;29;20052;-77
2021/09/13 07:01:07;;;;;;;22.25;15.88;;;;;;;20.66;52.00;100091.00;4879022;29;20048;-77
2021/09/13 07:03:34;;;;;;;20.50;13.80;;;;;;;20.76;51.77;100083.88;4878814;29;20051;-78
2021/09/13 07:06:01;;;;;;;15.90;14.25;;;;;;;20.76;51.47;100091.81;4879642;29;20124;-77
2021/09/13 07:08:29;;;;;;;17.40;13.45;;;;;;;20.81;51.86;100094.03;4879358;29;20132;-78
2021/09/13 07:10:56;;;;;;;22.85;13.15;;;;;;;21.10;51.38;100093.91;4879635;29;20053;-79
2021/09/13 07:13:24;;;;;;;17.42;12.65;;;;;;;21.25;51.63;100103.00;4878429;29;20047;-78
2021/09/13 07:15:52;;;;;;;12.90;11.70;;;;;;;21.28;51.33;100104.53;4878766;29;20044;-78
2021/09/13 07:18:24;;;;;;;16.13;11.20;;;;;;;21.24;51.32;100106.63;4879601;29;20052;-78
2021/09/13 07:20:52;;;;;;;18.92;10.65;;;;;;;21.40;50.77;100096.22;4879282;29;20041;-79
2021/09/13 07:23:19;;;;;;;15.68;12.27;;;;;;;21.68;49.96;100098.84;4879055;29;20045;-79
2021/09/13 07:25:46;;;;;;;16.65;10.90;;;;;;;21.85;49.61;100091.88;4878551;29;20053;-78
2021/09/13 07:28:13;;;;;;;17.20;11.32;;;;;;;21.82;48.93;100098.28;4879310;29;20057;-80
2021/09/13 07:30:40;;;;;;;12.05;10.82;;;;;;;21.79;48.27;100103.94;4876704;29;20544;-77
2021/09/13 07:33:07;;;;;;;17.08;8.70;;;;;;;22.15;47.54;100106.56;4879357;29;20044;-80
2021/09/13 07:35:34;;;;;;;11.98;8.48;;;;;;;21.97;47.34;100110.03;4879388;29;20060;-79
2021/09/13 07:38:01;;;;;;;11.40;8.52;;;;;;;22.13;47.15;100105.88;4879125;29;20045;-78
2021/09/13 07:40:27;;;;;;;11.93;8.05;;;;;;;22.23;46.56;100106.63;4874008;29;20053;-81
2021/09/13 07:42:55;;;;;;;12.68;8.10;;;;;;;22.33;46.15;100104.72;4876521;29;20065;-81
2021/09/13 07:45:22;;;;;;;11.15;8.10;;;;;;;22.52;46.10;100105.47;4879820;29;20563;-79
2021/09/13 07:47:49;;;;;;;13.05;8.20;;;;;;;22.74;45.17;100110.25;4887445;29;20120;-79
2021/09/13 07:50:16;;;;;;;11.32;8.13;;;;;;;22.53;46.48;100107.13;4879550;29;20051;-80
2021/09/13 07:52:43;;;;;;;9.20;7.88;;;;;;;22.87;45.65;100115.13;4878769;29;20110;-80
2021/09/13 07:55:10;;;;;;;10.90;8.70;;;;;;;22.75;44.91;100126.06;4877967;29;20041;-80
2021/09/13 07:57:37;;;;;;;11.73;9.05;;;;;;;22.59;46.22;100122.47;4873754;29;20104;-86
2021/09/13 08:00:05;;;;;;;10.48;8.10;;;;;;;23.03;45.99;100125.03;4875741;29;20044;-89
2021/09/13 08:02:38;;;;;;;10.98;9.10;;;;;;;22.75;46.07;100130.53;4877837;29;20064;-78
2021/09/13 08:05:06;;;;;;;15.73;8.98;;;;;;;22.84;44.72;100134.88;4877849;29;20041;-79
2021/09/13 08:07:33;;;;;;;8.73;8.02;;;;;;;22.95;44.50;100139.94;4878521;29;20057;-87
2021/09/13 08:10:00;;;;;;;10.38;9.25;;;;;;;22.78;44.59;100146.16;4877967;29;20055;-80
2021/09/13 08:12:27;;;;;;;9.60;8.52;;;;;;;22.70;44.47;100149.59;4875438;29;20377;-79
2021/09/13 08:14:54;;;;;;;10.75;9.75;;;;;;;22.69;45.91;100152.38;4876718;29;20048;-80
2021/09/13 08:17:22;;;;;;;10.15;8.88;;;;;;;22.83;46.41;100149.16;4877704;29;20054;-79
2021/09/13 08:19:49;;;;;;;10.25;9.10;;;;;;;22.78;46.49;100146.16;4878105;29;20133;-80
2021/09/13 08:22:17;;;;;;;9.82;8.85;;;;;;;22.95;45.81;100152.41;4878007;29;20049;-79
2021/09/13 08:24:44;;;;;;;16.10;9.55;;;;;;;22.85;46.05;100157.84;4877913;29;20091;-79
2021/09/13 08:27:26;;;;;;;8.23;7.47;;;;;;;22.92;45.19;100147.41;4873508;29;20049;-81
2021/09/13 08:29:53;;;;;;;12.95;8.90;;;;;;;23.04;45.61;100153.28;4876413;29;20049;-80
2021/09/13 08:32:20;;;;;;;16.02;9.20;;;;;;;23.16;44.98;100150.16;4878178;29;20560;-84
2021/09/13 08:34:47;;;;;;;16.20;9.57;;;;;;;22.98;45.25;100150.28;4878533;29;20045;-81
2021/09/13 08:37:13;;;;;;;10.70;9.60;;;;;;;23.33;44.63;100152.88;4877753;29;20076;-79
2021/09/13 08:39:40;;;;;;;10.02;9.13;;;;;;;23.27;44.22;100157.84;4873831;29;20052;-80
2021/09/13 08:42:07;;;;;;;9.15;8.27;;;;;;;23.33;44.76;100161.72;4877741;29;20045;-77
2021/09/13 08:44:34;;;;;;;15.38;8.55;;;;;;;23.42;44.52;100155.41;4878262;29;20108;-85
2021/09/13 08:47:11;;;;;;;18.95;9.48;;;;;;;23.12;44.76;100161.31;4878065;29;20500;-82
2021/09/13 08:49:40;;;;;;;11.05;9.20;;;;;;;23.49;44.04;100159.13;4872210;29;20105;-80
2021/09/13 08:52:07;;;;;;;10.05;9.07;;;;;;;23.40;45.15;100160.09;4878784;29;20041;-84
2021/09/13 08:54:36;;;;;;;13.35;10.73;;;;;;;23.27;44.99;100157.03;4877782;29;20052;-84
2021/09/13 08:57:07;;;;;;;22.38;10.25;;;;;;;23.70;43.92;100155.19;4878128;29;20458;-83
2021/09/13 08:59:36;;;;;;;11.23;10.05;;;;;;;23.41;44.80;100164.41;4872585;29;20589;-81
2021/09/13 09:02:04;;;;;;;11.85;9.85;;;;;;;23.87;44.17;100146.25;4875208;29;20048;-78
2021/09/13 09:04:51;;;;;;;13.73;10.50;;;;;;;23.64;44.43;100154.00;4878507;29;20048;-79
2021/09/13 09:07:22;;;;;;;12.25;10.88;;;;;;;23.78;44.53;100155.22;4878269;29;20069;-82
2021/09/13 09:10:08;;;;;;;15.32;10.48;;;;;;;24.00;43.80;100159.06;4877366;29;20051;-82
2021/09/13 09:12:56;;;;;;;10.50;9.50;;;;;;;24.13;43.29;100167.41;4878697;29;20109;-85
2021/09/13 09:15:23;;;;;;;11.02;9.98;;;;;;;24.02;43.02;100162.38;4873298;29;20052;-84
2021/09/13 09:17:55;;;;;;;13.32;10.18;;;;;;;24.21;42.91;100167.38;4878054;29;20045;-86
2021/09/13 09:20:24;;;;;;;11.15;9.93;;;;;;;24.49;42.50;100164.41;4878304;29;20045;-86
2021/09/13 09:23:01;;;;;;;12.18;11.02;;;;;;;24.63;42.02;100161.06;4878361;29;20048;-83
2021/09/13 09:25:36;;;;;;;12.77;9.15;;;;;;;24.49;42.46;100167.88;4879876;29;20045;-82
2021/09/13 09:28:10;;;;;;;12.80;9.43;;;;;;;24.58;42.32;100157.22;4876113;29;20124;-85
2021/09/13 09:30:37;;;;;;;;;;;;;;;24.62;41.39;100163.91;4877571;29;20053;-84
2021/09/13 09:33:07;;;;;;;11.60;9.82;;;;;;;24.51;41.66;100165.91;4879018;29;19931;-85
2021/09/13 09:35:45;;;;;;;15.63;10.38;;;;;;;24.55;41.67;100166.38;4872899;29;20064;-84
2021/09/13 09:38:39;;;;;;;12.00;10.95;;;;;;;24.50;41.37;100160.72;4879758;29;20551;-87
2021/09/13 09:41:11;;;;;;;13.60;12.10;;;;;;;24.61;41.63;100162.19;4878208;29;20128;-87
2021/09/13 09:43:48;;;;;;;13.90;10.63;;;;;;;25.04;40.57;100163.63;4879755;29;20536;-83
2021/09/13 09:46:16;;;;;;;12.07;10.52;;;;;;;25.19;40.28;100164.56;4881571;29;20038;-86
2021/09/13 09:48:43;;;;;;;12.52;10.50;;;;;;;24.98;40.12;100169.59;4879934;29;20044;-88
2021/09/13 09:51:33;;;;;;;12.70;11.38;;;;;;;24.80;41.06;100165.34;4880587;29;20037;-83
2021/09/13 09:54:15;;;;;;;20.60;11.27;;;;;;;25.22;40.78;100161.56;4880877;29;20051;-82
2021/09/13 09:56:47;;;;;;;12.10;10.82;;;;;;;25.17;40.93;100152.41;4873280;29;20055;-83
2021/09/13 09:59:17;;;;;;;11.93;10.35;;;;;;;24.99;40.73;100157.97;4879906;29;20052;-83
2021/09/13 10:01:50;;;;;;;14.20;10.55;;;;;;;25.20;40.80;100152.09;4877078;29;20059;-82
2021/09/13 10:04:17;;;;;;;11.33;10.23;;;;;;;25.42;40.67;100161.97;4879576;29;20049;-81
2021/09/13 10:06:47;;;;;;;13.30;11.35;;;;;;;25.06;41.39;100154.47;4873124;29;20037;-81
2021/09/13 10:09:15;;;;;;;12.18;10.88;;;;;;;25.50;40.82;100148.56;4880355;29;20053;-81
2021/09/13 10:11:43;;;;;;;10.48;9.55;;;;;;;25.86;39.67;100150.72;4876567;29;20045;-82
2021/09/13 10:14:13;;;;;;;11.82;9.32;;;;;;;25.83;38.98;100151.06;4875605;29;20049;-82
2021/09/13 10:16:43;;;;;;;13.60;9.25;;;;;;;25.53;39.67;100153.56;4877671;29;20088;-81
2021/09/13 10:19:16;;;;;;;14.80;9.10;;;;;;;25.59;39.39;100144.84;4878904;29;20097;-80
2021/09/13 10:21:43;;;;;;;18.17;9.40;;;;;;;25.85;38.28;100141.06;4875631;29;20068;-84
2021/09/13 10:24:17;;;;;;;11.68;9.93;;;;;;;25.75;38.90;100145.78;4879414;29;20045;-85
2021/09/13 10:26:48;;;;;;;14.65;10.65;;;;;;;26.06;38.87;100143.88;4877923;29;20037;-84
2021/09/13 10:29:26;;;;;;;8.65;7.95;;;;;;;26.24;38.92;100140.88;4877955;29;20575;-81
2021/09/13 10:31:59;;;;;;;11.95;9.13;;;;;;;26.70;38.06;100142.66;4878245;29;20143;-81
2021/09/13 10:34:33;;;;;;;10.90;8.90;;;;;;;26.47;38.10;100143.53;4876946;29;20053;-82
2021/09/13 10:37:14;;;;;;;14.32;10.38;;;;;;;26.47;38.16;100140.03;4880844;29;20404;-79
2021/09/13 10:40:04;;;;;;;10.80;9.80;;;;;;;26.34;38.65;100136.13;4879204;29;20069;-88
2021/09/13 10:42:49;;;;;;;12.15;10.85;;;;;;;26.10;38.03;100131.00;4880529;29;20056;-86
2021/09/13 10:45:29;;;;;;;12.35;9.93;;;;;;;26.24;38.17;100126.69;4877614;29;20045;-83
2021/09/13 10:47:58;;;;;;;10.70;9.43;;;;;;;26.51;37.04;100125.31;4880201;29;20045;-82
2021/09/13 10:50:37;;;;;;;9.32;8.48;;;;;;;26.40;37.11;100123.88;4890201;29;20076;-86
2021/09/13 10:53:24;;;;;;;9.80;8.70;;;;;;;26.29;36.69;100124.31;4882332;29;20481;-78
2021/09/13 10:56:03;;;;;;;12.10;8.52;;;;;;;26.09;36.23;100111.47;4884100;29;20045;-86
2021/09/13 10:58:43;;;;;;;10.68;9.65;;;;;;;26.12;35.85;100110.28;4887771;29;20070;-84
2021/09/13 11:01:25;;;;;;;9.48;8.60;;;;;;;26.47;36.24;100114.13;4886067;29;20471;-86
2021/09/13 11:04:02;;;;;;;10.75;9.13;;;;;;;26.47;37.43;100097.28;4882094;29;20045;-85
2021/09/13 11:06:40;;;;;;;13.63;9.02;;;;;;;26.71;37.24;100106.88;4890385;29;20128;-86
2021/09/13 11:09:14;;;;;;;15.52;9.15;;;;;;;27.19;35.51;100099.28;4885542;29;20060;-86
2021/09/13 11:11:45;;;;;;;20.40;11.70;;;;;;;26.77;36.52;100098.13;4888225;29;20049;-85
2021/09/13 11:14:19;;;;;;;10.75;9.68;;;;;;;26.96;36.24;100102.06;4897029;29;20037;-86
2021/09/13 11:16:56;;;;;;;16.00;12.05;;;;;;;26.72;36.67;100105.84;4895465;29;20048;-86
2021/09/13 11:19:26;;;;;;;16.67;12.65;;;;;;;26.76;36.86;100102.63;4913843;29;20052;-84
2021/09/13 11:22:05;;;;;;;21.45;10.45;;;;;;;27.25;36.31;100101.22;4899615;29;20041;-89
2021/09/13 11:24:39;;;;;;;19.23;11.55;;;;;;;27.06;37.02;100106.13;4890652;29;20153;-87
2021/09/13 11:27:24;;;;;;;9.82;8.82;;;;;;;27.19;35.79;100094.78;4880246;29;20041;-88
2021/09/13 11:29:51;;;;;;;15.73;9.68;;;;;;;27.01;35.80;100079.09;4882732;29;20061;-89
2021/09/13 11:32:19;;;;;;;15.88;9.38;;;;;;;27.23;34.77;100084.53;4883125;29;20068;-90
2021/09/13 11:34:51;;;;;;;8.65;7.65;;;;;;;27.56;34.46;100076.84;4882136;29;20037;-84
2021/09/13 11:37:23;;;;;;;7.88;7.13;;;;;;;27.75;33.62;100080.75;4883625;29;20071;-89
2021/09/13 11:40:11;;;;;;;8.10;7.28;;;;;;;27.77;32.78;100078.72;4892774;29;20044;-82
2021/09/13 11:42:38;;;;;;;7.93;5.85;;;;;;;27.63;32.00;100078.56;4881526;29;20116;-86